Time;durP1;ratioP1;P1;durP2;ratioP2;P2;SDS_P1;SDS_P2;PMS_P1;PMS_P2;Temp;Humidity;BMP_temperature;BMP_pressure;BME280_temperature;BME280_humidity;BME280_pressure;Samples;Min_cycle;Max_cycle;Signal;HPM_P1;HPM_P2
2022/11/05 00:09:39;;;;;;;5.83;4.50;;;;;;;12.57;67.02;97145.72;5044759;28;20461;-70
2022/11/05 00:17:38;;;;;;;4.40;3.70;;;;;;;12.62;66.98;97147.84;5043559;28;20544;-71
2022/11/05 00:20:04;;;;;;;3.80;3.40;;;;;;;12.60;66.36;97149.84;5051565;28;20459;-70
2022/11/05 00:25:17;;;;;;;4.00;2.70;;;;;;;12.63;65.94;97151.31;5051079;28;20425;-70
2022/11/05 00:27:43;;;;;;;2.63;2.43;;;;;;;12.69;65.34;97156.72;5046127;28;20442;-70
2022/11/05 00:30:09;;;;;;;4.30;2.60;;;;;;;12.68;65.18;97160.34;5050919;28;21075;-70
2022/11/05 00:32:34;;;;;;;3.07;2.77;;;;;;;12.65;64.98;97167.75;5051480;28;20425;-70
2022/11/05 00:35:00;;;;;;;3.13;2.73;;;;;;;12.62;65.38;97168.06;5047925;28;20517;-70
2022/11/05 00:37:28;;;;;;;6.93;3.67;;;;;;;12.62;65.52;97175.94;5049510;28;20296;-70
2022/11/05 00:39:54;;;;;;;3.53;3.20;;;;;;;12.60;66.17;97173.50;5051286;28;20187;-70
2022/11/05 00:45:04;;;;;;;5.90;3.13;;;;;;;12.55;66.41;97179.22;5047919;28;20182;-70
2022/11/05 00:50:16;;;;;;;4.27;3.60;;;;;;;12.63;66.40;97183.66;5052166;28;20955;-71
2022/11/05 00:52:58;;;;;;;4.93;2.90;;;;;;;12.65;66.26;97183.50;5055524;28;20428;-69
2022/11/05 00:55:27;;;;;;;4.40;2.97;;;;;;;12.65;66.21;97189.59;5050549;28;20513;-70
2022/11/05 00:57:52;;;;;;;7.03;3.10;;;;;;;12.64;66.32;97193.19;5047013;28;20485;-70
2022/11/05 01:00:18;;;;;;;4.63;3.43;;;;;;;12.61;66.67;97193.53;5050762;28;20457;-70
2022/11/05 01:02:44;;;;;;;6.40;3.70;;;;;;;12.63;66.84;97203.88;5050878;28;20269;-71
2022/11/05 01:05:09;;;;;;;4.00;3.37;;;;;;;12.58;67.17;97202.56;5049337;28;20237;-71
2022/11/05 01:07:34;;;;;;;4.40;3.33;;;;;;;12.57;67.45;97214.06;5052836;28;20202;-69
2022/11/05 01:10:00;;;;;;;3.10;2.90;;;;;;;12.62;67.05;97213.56;5049462;28;20278;-70
2022/11/05 01:12:25;;;;;;;8.83;3.13;;;;;;;12.59;67.15;97206.03;5049947;28;20186;-70
2022/11/05 01:14:51;;;;;;;8.33;2.73;;;;;;;12.64;67.39;97218.69;5053568;28;20269;-68
2022/11/05 01:17:16;;;;;;;4.20;2.50;;;;;;;12.59;66.46;97217.34;5049402;28;20293;-70
2022/11/05 01:19:42;;;;;;;2.37;2.10;;;;;;;12.56;66.63;97216.88;5049211;28;20179;-70
2022/11/05 01:22:07;;;;;;;2.97;2.40;;;;;;;12.58;66.19;97215.72;5049943;28;20198;-69
2022/11/05 01:24:32;;;;;;;2.20;1.93;;;;;;;12.58;66.14;97220.16;5050418;28;20985;-69
2022/11/05 01:26:58;;;;;;;6.40;2.13;;;;;;;12.57;66.22;97223.78;5050032;28;20187;-70
2022/11/05 01:29:24;;;;;;;3.77;1.50;;;;;;;12.59;65.68;97221.81;5049472;28;20272;-70
2022/11/05 01:31:49;;;;;;;2.17;1.87;;;;;;;12.62;65.63;97224.09;4999929;28;20190;-70
2022/11/05 01:34:15;;;;;;;2.43;1.60;;;;;;;12.64;65.44;97226.56;5048444;28;20198;-71
2022/11/05 01:36:40;;;;;;;2.70;1.70;;;;;;;12.58;64.68;97226.22;5034511;28;20210;-69
2022/11/05 01:39:05;;;;;;;1.70;1.60;;;;;;;12.63;65.02;97224.94;5048195;28;20275;-69
2022/11/05 01:41:31;;;;;;;2.13;1.80;;;;;;;12.67;65.19;97228.84;5053558;28;20730;-69
2022/11/05 01:44:00;;;;;;;1.37;1.27;;;;;;;12.66;64.90;97228.03;5046835;28;20610;-70
2022/11/05 01:46:41;;;;;;;2.07;1.67;;;;;;;12.68;65.00;97225.22;5049247;28;20183;-71
2022/11/05 01:49:16;;;;;;;2.20;1.57;;;;;;;12.64;64.53;97224.75;5049020;28;20566;-70
2022/11/05 01:51:42;;;;;;;5.93;2.07;;;;;;;12.59;64.02;97232.31;5043925;28;20417;-70
2022/11/05 01:54:12;;;;;;;1.80;1.30;;;;;;;12.55;64.60;97229.19;5048412;28;20425;-70
2022/11/05 01:56:51;;;;;;;1.77;1.33;;;;;;;12.55;64.53;97231.00;5049474;28;20457;-71
2022/11/05 01:59:26;;;;;;;2.57;1.70;;;;;;;12.59;64.58;97230.50;5050201;28;20449;-70
2022/11/05 02:01:52;;;;;;;2.17;1.57;;;;;;;12.59;64.44;97233.13;5045003;28;20409;-70
2022/11/05 02:04:34;;;;;;;2.13;1.90;;;;;;;12.66;64.47;97237.75;5048655;28;20429;-70
2022/11/05 02:07:00;;;;;;;4.90;1.40;;;;;;;12.60;63.97;97240.03;5050497;28;20513;-70
2022/11/05 02:10:07;;;;;;;1.43;1.33;;;;;;;12.58;64.34;97243.81;5052121;28;20894;-69
2022/11/05 02:12:35;;;;;;;2.90;1.60;;;;;;;12.62;64.33;97247.75;5041228;28;20928;-72
2022/11/05 02:15:00;;;;;;;1.53;1.43;;;;;;;12.63;64.83;97241.50;5050035;28;20537;-71
2022/11/05 02:17:35;;;;;;;2.33;1.53;;;;;;;12.62;64.89;97237.22;5052665;28;20461;-69
2022/11/05 02:20:22;;;;;;;2.03;1.50;;;;;;;12.61;64.81;97238.22;5050203;28;20692;-70
2022/11/05 02:23:17;;;;;;;2.13;1.43;;;;;;;12.57;65.12;97239.53;5050505;28;20460;-69
2022/11/05 02:26:11;;;;;;;3.20;1.60;;;;;;;12.60;65.59;97249.75;5051148;28;20423;-70
2022/11/05 02:29:26;;;;;;;5.77;1.80;;;;;;;12.59;65.78;97248.09;5038969;28;20910;-70
2022/11/05 02:32:22;;;;;;;1.97;1.50;;;;;;;12.55;66.19;97241.50;5047517;28;20402;-70
2022/11/05 02:34:51;;;;;;;8.23;2.10;;;;;;;12.49;66.74;97244.78;5047345;28;20499;-70
2022/11/05 02:37:25;;;;;;;2.23;1.77;;;;;;;12.43;66.98;97247.09;5053406;28;20533;-70
2022/11/05 02:39:59;;;;;;;2.20;2.00;;;;;;;12.38;67.92;97246.75;5046775;28;20421;-70
2022/11/05 02:42:44;;;;;;;2.10;1.90;;;;;;;12.40;67.34;97255.28;5057214;28;20425;-71
2022/11/05 02:45:24;;;;;;;1.80;1.70;;;;;;;12.47;67.23;97254.66;5042036;28;20461;-69
2022/11/05 02:47:57;;;;;;;3.00;1.73;;;;;;;12.47;67.54;97262.56;5051201;28;20441;-71
2022/11/05 02:50:33;;;;;;;6.90;2.00;;;;;;;12.48;67.47;97254.50;5052041;28;20923;-70
2022/11/05 02:53:00;;;;;;;5.90;1.77;;;;;;;12.51;67.50;97259.44;5051671;28;20833;-70
2022/11/05 02:55:30;;;;;;;2.17;1.67;;;;;;;12.54;67.54;97260.91;5052874;28;20422;-70
2022/11/05 02:57:55;;;;;;;3.70;1.90;;;;;;;12.51;67.02;97256.78;5050640;28;21062;-70
2022/11/05 03:00:50;;;;;;;3.43;1.87;;;;;;;12.49;67.17;97257.94;5052712;28;20429;-70
2022/11/05 03:03:21;;;;;;;6.13;1.70;;;;;;;12.52;66.83;97262.88;5051760;28;20186;-70
2022/11/05 03:06:21;;;;;;;1.70;1.60;;;;;;;12.51;66.49;97259.44;5053682;28;20943;-69
2022/11/05 03:09:00;;;;;;;2.80;1.50;;;;;;;12.53;66.77;97260.09;5045732;28;20446;-70
2022/11/05 03:11:28;;;;;;;2.70;1.80;;;;;;;12.57;67.04;97263.22;5052629;28;20422;-70
2022/11/05 03:14:02;;;;;;;6.20;2.33;;;;;;;12.55;67.17;97262.53;5046984;28;20465;-69
2022/11/05 03:16:40;;;;;;;3.73;1.90;;;;;;;12.59;66.93;97259.41;5033473;28;20583;-71
2022/11/05 03:19:07;;;;;;;2.60;1.67;;;;;;;12.59;66.28;97274.38;5043185;28;20650;-70
2022/11/05 03:21:39;;;;;;;1.77;1.50;;;;;;;12.49;66.07;97274.53;5052866;28;20422;-70
2022/11/05 03:24:11;;;;;;;4.80;1.70;;;;;;;12.46;66.76;97271.41;5051004;28;20820;-69
2022/11/05 03:26:44;;;;;;;3.00;1.60;;;;;;;12.51;66.58;97277.00;5051893;28;20787;-70
2022/11/05 03:29:31;;;;;;;1.53;1.43;;;;;;;12.52;66.27;97279.47;5047049;28;20858;-70
2022/11/05 03:31:58;;;;;;;1.47;1.30;;;;;;;12.55;66.35;97281.75;5051491;28;20440;-70
2022/11/05 03:34:28;;;;;;;1.77;1.50;;;;;;;12.58;66.55;97286.69;5050653;28;20448;-70
2022/11/05 03:36:55;;;;;;;5.03;1.57;;;;;;;12.60;66.53;97286.56;5052721;28;21046;-70
2022/11/05 03:39:29;;;;;;;3.47;2.93;;;;;;;12.61;66.59;97288.16;5050431;28;20457;-70
2022/11/05 03:41:56;;;;;;;1.50;1.30;;;;;;;12.64;67.00;97292.31;5052188;28;20888;-70
2022/11/05 03:44:26;;;;;;;2.00;1.37;;;;;;;12.63;66.91;97294.09;5050652;28;20444;-71
2022/11/05 03:46:54;;;;;;;4.97;1.67;;;;;;;12.64;67.17;97290.47;5050170;28;20782;-70
2022/11/05 03:49:29;;;;;;;1.93;1.67;;;;;;;12.63;66.85;97295.91;5048651;28;20464;-71
2022/11/05 03:51:58;;;;;;;6.70;1.80;;;;;;;12.65;66.89;97299.22;5051021;28;20448;-71
2022/11/05 03:54:24;;;;;;;3.40;1.90;;;;;;;12.63;67.02;97301.97;5050084;28;20499;-71
2022/11/05 03:57:03;;;;;;;8.90;2.10;;;;;;;12.56;67.19;97311.50;5050036;28;20461;-71
2022/11/05 03:59:30;;;;;;;2.83;1.70;;;;;;;12.54;67.74;97318.72;5047021;28;20211;-70
2022/11/05 04:01:56;;;;;;;3.00;2.07;;;;;;;12.55;67.58;97315.13;5050713;28;20425;-70
2022/11/05 04:04:21;;;;;;;2.43;1.90;;;;;;;12.56;67.35;97316.78;5051495;28;20873;-70
2022/11/05 04:14:58;;;;;;;24.80;10.57;;;;;;;12.63;67.43;97333.53;5059105;28;20418;-69
2022/11/05 04:17:24;;;;;;;25.30;12.87;;;;;;;12.60;67.36;97332.06;5050443;28;20487;-70
2022/11/05 04:25:19;;;;;;;17.30;10.57;;;;;;;12.57;67.18;97345.50;5050770;28;20504;-69
2022/11/05 04:27:45;;;;;;;4.60;2.50;;;;;;;12.53;67.29;97348.63;5049899;28;21006;-71
2022/11/05 04:30:19;;;;;;;2.90;2.60;;;;;;;12.49;66.99;97347.28;5049518;28;20516;-70
2022/11/05 04:33:03;;;;;;;6.63;2.10;;;;;;;12.49;67.43;97349.94;5050183;28;20440;-69
2022/11/05 04:35:31;;;;;;;4.53;3.70;;;;;;;12.47;66.86;97354.53;5055639;28;20880;-70
2022/11/05 04:37:57;;;;;;;3.03;2.80;;;;;;;12.43;67.19;97356.66;5049633;28;20434;-69
2022/11/05 04:40:23;;;;;;;2.60;2.40;;;;;;;12.47;67.02;97359.81;5046219;28;20998;-69
2022/11/05 04:42:48;;;;;;;3.60;3.27;;;;;;;12.48;67.36;97356.16;5051666;28;20202;-69
2022/11/05 04:45:14;;;;;;;2.87;2.57;;;;;;;12.47;67.31;97357.19;5030570;28;20533;-70
2022/11/05 04:47:39;;;;;;;2.90;2.10;;;;;;;12.46;67.56;97358.16;5062409;28;20209;-70
2022/11/05 04:50:05;;;;;;;1.80;1.70;;;;;;;12.48;67.77;97361.41;5048287;28;20186;-70
2022/11/05 04:52:30;;;;;;;2.17;1.70;;;;;;;12.42;67.61;97357.63;5066388;28;20182;-69
2022/11/05 04:54:55;;;;;;;2.23;1.73;;;;;;;12.46;67.63;97363.41;5059086;28;20716;-70
2022/11/05 04:57:21;;;;;;;1.80;1.53;;;;;;;12.50;67.56;97369.97;5065596;28;20309;-70
2022/11/05 04:59:47;;;;;;;1.60;1.40;;;;;;;12.46;67.57;97371.31;5055220;28;20261;-70
2022/11/05 05:02:12;;;;;;;2.77;1.43;;;;;;;12.46;67.50;97373.94;5066163;28;20737;-70
2022/11/05 05:04:38;;;;;;;1.87;1.40;;;;;;;12.40;67.50;97370.13;5055180;28;20512;-70
2022/11/05 05:07:03;;;;;;;1.80;1.57;;;;;;;12.41;68.16;97377.03;5061650;28;20261;-71
2022/11/05 05:09:29;;;;;;;3.70;1.77;;;;;;;12.44;67.94;97382.78;5066228;28;20585;-71
2022/11/05 05:11:54;;;;;;;1.40;1.30;;;;;;;12.46;67.71;97387.06;5058585;28;20183;-70
2022/11/05 05:14:20;;;;;;;4.23;1.73;;;;;;;12.44;67.70;97387.22;5059994;28;20193;-71
2022/11/05 05:16:45;;;;;;;3.47;3.27;;;;;;;12.43;68.06;97391.66;5058772;28;20207;-70
2022/11/05 05:19:10;;;;;;;4.13;2.60;;;;;;;12.41;67.75;97393.63;5049561;28;20286;-70
2022/11/05 05:21:39;;;;;;;8.07;2.70;;;;;;;12.39;68.17;97400.03;5061858;28;20186;-71
2022/11/05 05:24:07;;;;;;;2.20;2.00;;;;;;;12.45;68.10;97402.00;5062280;28;20183;-69
2022/11/05 05:26:34;;;;;;;2.43;2.33;;;;;;;12.47;68.07;97399.22;5061889;28;20409;-69
2022/11/05 05:28:59;;;;;;;2.43;2.27;;;;;;;12.47;67.81;97396.59;5063619;28;20445;-70
2022/11/05 05:31:25;;;;;;;3.20;2.23;;;;;;;12.38;68.27;97395.75;5062398;28;20498;-71
2022/11/05 05:33:53;;;;;;;3.47;2.10;;;;;;;12.43;67.87;97399.53;5066578;28;20673;-70
2022/11/05 05:36:19;;;;;;;2.30;2.20;;;;;;;12.37;68.06;97394.91;5059737;28;20299;-70
2022/11/05 05:38:45;;;;;;;4.20;1.83;;;;;;;12.42;68.42;97405.78;5049707;28;20457;-71
2022/11/05 05:41:10;;;;;;;2.60;2.00;;;;;;;12.47;68.46;97407.94;5064473;28;20433;-70
2022/11/05 05:43:36;;;;;;;2.23;2.03;;;;;;;12.48;68.33;97408.75;5066832;28;20257;-70
2022/11/05 05:46:06;;;;;;;2.07;1.97;;;;;;;12.50;68.22;97412.03;5061272;28;20240;-71
2022/11/05 05:48:32;;;;;;;4.13;2.17;;;;;;;12.52;68.23;97412.72;5058988;28;20198;-71
2022/11/05 05:51:09;;;;;;;2.20;2.10;;;;;;;12.51;68.18;97413.69;5071080;28;20420;-71
2022/11/05 05:53:35;;;;;;;2.33;2.13;;;;;;;12.54;68.25;97418.63;5056298;28;20178;-70
2022/11/05 05:56:00;;;;;;;2.53;2.33;;;;;;;12.54;68.16;97418.63;5058448;28;20551;-71
2022/11/05 05:58:31;;;;;;;2.70;2.47;;;;;;;12.49;68.23;97424.38;5067313;28;20717;-71
2022/11/05 06:01:00;;;;;;;2.70;2.50;;;;;;;12.48;68.58;97429.75;5065586;28;20273;-70
2022/11/05 06:03:25;;;;;;;4.43;2.50;;;;;;;12.50;68.60;97433.91;5065207;28;20571;-71
2022/11/05 06:05:51;;;;;;;2.77;2.57;;;;;;;12.52;68.36;97428.47;5064911;28;20495;-70
2022/11/05 06:08:16;;;;;;;5.00;2.97;;;;;;;12.47;68.31;97426.31;5067129;28;20546;-71
2022/11/05 06:10:41;;;;;;;6.30;4.10;;;;;;;12.49;68.26;97436.66;5068070;28;20243;-70
2022/11/05 06:13:07;;;;;;;5.47;4.60;;;;;;;12.47;68.26;97438.66;5061999;28;20269;-70
2022/11/05 06:15:32;;;;;;;4.97;4.47;;;;;;;12.46;68.17;97448.34;5062018;28;20243;-70
2022/11/05 06:17:58;;;;;;;5.43;4.90;;;;;;;12.50;67.94;97446.22;5072536;28;20241;-70
2022/11/05 06:20:23;;;;;;;6.30;5.70;;;;;;;12.50;68.29;97454.09;5057169;28;20713;-70
2022/11/05 06:22:58;;;;;;;8.83;6.00;;;;;;;12.50;68.16;97454.09;5065387;28;20733;-69
2022/11/05 06:25:24;;;;;;;7.77;6.50;;;;;;;12.53;68.01;97464.31;5062849;28;20185;-70
2022/11/05 06:27:49;;;;;;;7.57;5.83;;;;;;;12.54;68.22;97458.06;5063275;28;20448;-71
2022/11/05 06:30:16;;;;;;;9.30;7.70;;;;;;;12.57;67.78;97460.38;5053326;28;20522;-70
2022/11/05 06:32:42;;;;;;;10.90;8.90;;;;;;;12.56;68.01;97458.72;5066178;28;20190;-71
2022/11/05 06:35:07;;;;;;;13.33;10.43;;;;;;;12.59;67.62;97468.94;5069497;28;20432;-70
2022/11/05 06:37:33;;;;;;;13.33;11.60;;;;;;;12.55;67.48;97472.84;5065139;28;20238;-69
2022/11/05 06:39:58;;;;;;;19.13;10.90;;;;;;;12.56;67.75;97483.22;5066679;28;20563;-71
2022/11/05 06:42:24;;;;;;;14.80;12.30;;;;;;;12.54;67.63;97479.91;5064001;28;20186;-71
2022/11/05 06:44:50;;;;;;;16.60;13.43;;;;;;;12.58;67.55;97486.50;5054521;28;20210;-70
2022/11/05 06:47:17;;;;;;;14.70;12.03;;;;;;;12.55;67.23;97489.44;5066134;28;20265;-70
2022/11/05 06:49:42;;;;;;;15.13;12.70;;;;;;;12.60;67.76;97486.38;5054342;28;20537;-69
2022/11/05 06:52:07;;;;;;;17.83;12.90;;;;;;;12.62;67.34;97488.81;5065836;28;20417;-69
2022/11/05 06:54:33;;;;;;;16.93;13.43;;;;;;;12.64;67.27;97492.94;5064070;28;20194;-70
2022/11/05 06:56:58;;;;;;;17.47;13.20;;;;;;;12.62;67.29;97494.91;5066548;28;20197;-71
2022/11/05 06:59:24;;;;;;;18.33;13.23;;;;;;;12.62;67.53;97492.25;5054454;28;20681;-69
2022/11/05 07:01:49;;;;;;;15.53;12.83;;;;;;;12.65;67.14;97506.91;5066928;28;20753;-70
2022/11/05 07:04:15;;;;;;;18.03;14.30;;;;;;;12.64;67.53;97508.72;5071365;28;20216;-70
2022/11/05 07:06:41;;;;;;;17.57;13.00;;;;;;;12.69;67.35;97510.88;5065509;28;20186;-69
2022/11/05 07:09:06;;;;;;;21.40;14.30;;;;;;;12.70;67.38;97523.88;5068680;28;20194;-70
2022/11/05 07:11:32;;;;;;;17.87;14.23;;;;;;;12.71;67.12;97520.25;5064030;28;20179;-70
2022/11/05 07:13:57;;;;;;;19.70;14.80;;;;;;;12.72;67.32;97527.19;5047212;28;20701;-70
2022/11/05 07:16:23;;;;;;;16.40;13.50;;;;;;;12.71;67.11;97536.03;5065517;28;20214;-71
2022/11/05 07:18:48;;;;;;;17.13;14.10;;;;;;;12.73;67.56;97536.69;5052150;28;20298;-70
2022/11/05 07:21:14;;;;;;;18.67;13.13;;;;;;;12.77;67.17;97544.25;5060461;28;20573;-71
2022/11/05 07:23:39;;;;;;;20.20;14.67;;;;;;;12.78;67.62;97553.81;5068697;28;20178;-71
2022/11/05 07:26:05;;;;;;;18.63;13.10;;;;;;;12.79;67.70;97550.19;5061865;28;20171;-70
2022/11/05 07:28:30;;;;;;;20.90;14.00;;;;;;;12.81;67.23;97562.19;5065908;28;20728;-71
2022/11/05 07:30:57;;;;;;;15.90;12.27;;;;;;;12.76;66.99;97559.22;5062402;28;20521;-71
2022/11/05 07:33:22;;;;;;;23.67;13.73;;;;;;;12.79;67.04;97563.34;5071161;28;20550;-71
2022/11/05 07:35:48;;;;;;;20.20;13.40;;;;;;;12.81;67.29;97569.28;5066426;28;20427;-72
2022/11/05 07:38:13;;;;;;;20.13;14.07;;;;;;;12.79;67.04;97569.41;5062399;28;20402;-71
2022/11/05 07:40:39;;;;;;;15.77;12.57;;;;;;;12.75;67.14;97582.06;5066938;28;20187;-70
2022/11/05 07:43:04;;;;;;;17.33;12.70;;;;;;;12.74;67.05;97575.16;5062160;28;20214;-70
2022/11/05 07:45:30;;;;;;;16.57;12.33;;;;;;;12.73;67.09;97578.75;5070903;28;20178;-71
2022/11/05 07:47:58;;;;;;;16.60;14.00;;;;;;;12.79;67.21;97581.75;5062179;28;20737;-70
2022/11/05 07:50:25;;;;;;;19.73;13.10;;;;;;;12.81;67.36;97582.44;5070440;28;20210;-70
2022/11/05 07:52:51;;;;;;;14.83;12.50;;;;;;;12.84;67.34;97593.47;5064108;28;21101;-70
2022/11/05 07:55:18;;;;;;;16.37;13.20;;;;;;;12.85;67.27;97595.09;5061966;28;20430;-71
2022/11/05 07:57:45;;;;;;;15.80;12.40;;;;;;;12.86;67.00;97595.91;5057846;28;20699;-70
2022/11/05 08:00:21;;;;;;;17.00;13.00;;;;;;;12.84;66.87;97608.44;5041859;28;20458;-73
2022/11/05 08:03:01;;;;;;;14.60;13.10;;;;;;;12.77;66.58;97602.13;5044778;28;20425;-71
2022/11/05 08:05:27;;;;;;;13.83;12.00;;;;;;;12.75;66.67;97604.94;5037832;28;20417;-70
2022/11/05 08:07:54;;;;;;;14.00;11.93;;;;;;;12.74;66.47;97609.34;5042246;28;20453;-70
2022/11/05 08:10:20;;;;;;;15.63;12.63;;;;;;;12.73;66.78;97606.88;5037643;28;20505;-70
2022/11/05 08:12:45;;;;;;;13.77;10.73;;;;;;;12.68;66.73;97614.41;5039542;28;20832;-71
2022/11/05 08:15:10;;;;;;;16.30;10.10;;;;;;;12.65;66.63;97609.47;5048688;28;20433;-70
2022/11/05 08:17:36;;;;;;;9.37;8.47;;;;;;;12.65;66.90;97612.09;5056570;28;20281;-71
2022/11/05 08:20:01;;;;;;;8.90;7.70;;;;;;;12.63;66.84;97616.69;5055965;28;20265;-72
2022/11/05 08:22:27;;;;;;;8.73;7.90;;;;;;;12.63;66.74;97617.50;5053835;28;20178;-70
2022/11/05 08:24:52;;;;;;;6.57;5.90;;;;;;;12.63;67.04;97612.25;5047768;28;20669;-71
2022/11/05 08:27:18;;;;;;;7.70;6.77;;;;;;;12.59;66.80;97613.56;5036737;28;20606;-69
2022/11/05 08:29:43;;;;;;;7.70;5.63;;;;;;;12.58;67.04;97622.41;5048911;28;20190;-69
2022/11/05 08:32:09;;;;;;;6.10;5.50;;;;;;;12.58;67.32;97627.69;5036730;28;20267;-69
2022/11/05 08:34:34;;;;;;;5.60;4.27;;;;;;;12.52;66.56;97630.91;5043895;28;20755;-71
2022/11/05 08:37:00;;;;;;;4.93;4.50;;;;;;;12.52;66.60;97631.75;5050246;28;20656;-69
2022/11/05 08:39:26;;;;;;;6.90;5.97;;;;;;;12.54;66.38;97636.84;5034630;28;20237;-70
2022/11/05 08:41:51;;;;;;;7.90;4.83;;;;;;;12.55;66.71;97639.31;5050200;28;20413;-70
2022/11/05 08:44:16;;;;;;;5.23;4.63;;;;;;;12.54;66.11;97644.72;5040769;28;20678;-70
2022/11/05 08:46:42;;;;;;;4.73;4.20;;;;;;;12.47;65.91;97643.72;5061647;28;20262;-71
2022/11/05 08:49:07;;;;;;;6.17;4.43;;;;;;;12.50;66.31;97643.38;5041721;28;20203;-71
2022/11/05 08:51:33;;;;;;;4.83;4.43;;;;;;;12.49;66.11;97647.81;5055618;28;20182;-72
2022/11/05 08:53:58;;;;;;;4.83;4.20;;;;;;;12.52;65.79;97652.78;5048275;28;20180;-69
2022/11/05 08:56:24;;;;;;;6.63;4.90;;;;;;;12.55;66.14;97656.91;5038546;28;20202;-68
2022/11/05 08:58:49;;;;;;;5.40;4.90;;;;;;;12.59;65.89;97651.16;5049249;28;20287;-70
2022/11/05 09:01:14;;;;;;;4.73;4.33;;;;;;;12.62;65.91;97663.19;5039789;28;20212;-70
2022/11/05 09:03:40;;;;;;;4.77;3.70;;;;;;;12.60;65.56;97662.53;5062687;28;20228;-70
2022/11/05 09:06:06;;;;;;;4.10;3.70;;;;;;;12.64;65.54;97665.66;5047046;28;20752;-70
2022/11/05 09:08:31;;;;;;;4.57;4.17;;;;;;;12.65;64.99;97669.94;5049970;28;20241;-71
2022/11/05 09:10:57;;;;;;;4.50;4.10;;;;;;;12.63;65.52;97667.47;5037925;28;20191;-70
2022/11/05 09:13:22;;;;;;;5.83;4.40;;;;;;;12.66;65.36;97669.78;5047556;28;20195;-69
2022/11/05 09:15:49;;;;;;;7.10;5.57;;;;;;;12.71;65.53;97664.91;5003186;28;20240;-70
2022/11/05 09:18:15;;;;;;;6.03;5.00;;;;;;;12.76;65.92;97669.69;5051000;28;20239;-68
2022/11/05 09:20:41;;;;;;;8.30;4.70;;;;;;;12.81;66.02;97667.41;5053375;28;20479;-69
2022/11/05 09:23:07;;;;;;;5.03;4.23;;;;;;;12.81;65.57;97674.50;5064770;28;20417;-70
2022/11/05 09:25:32;;;;;;;4.17;3.77;;;;;;;12.84;65.55;97672.38;5054478;28;20194;-70
2022/11/05 09:28:09;;;;;;;4.37;3.57;;;;;;;12.85;64.87;97678.47;5064288;28;20438;-70
2022/11/05 09:30:40;;;;;;;3.53;3.23;;;;;;;12.86;65.24;97675.66;5059542;28;20186;-70
2022/11/05 09:33:05;;;;;;;6.00;3.50;;;;;;;12.89;63.92;97674.53;5066411;28;20421;-69
2022/11/05 09:35:31;;;;;;;2.83;2.60;;;;;;;12.92;63.95;97682.13;5066117;28;20449;-70
2022/11/05 09:37:57;;;;;;;3.80;3.40;;;;;;;12.90;63.61;97687.53;5060756;28;20797;-69
2022/11/05 09:40:24;;;;;;;6.50;3.60;;;;;;;12.90;63.95;97681.44;5066562;28;20545;-70
2022/11/05 09:42:51;;;;;;;6.03;3.87;;;;;;;12.94;64.57;97681.94;5059730;28;20218;-70
2022/11/05 09:45:19;;;;;;;4.70;3.80;;;;;;;12.94;64.30;97688.06;5066907;28;20424;-70
2022/11/05 09:47:48;;;;;;;3.90;3.50;;;;;;;12.96;64.06;97686.09;5060216;28;20441;-69
2022/11/05 09:50:21;;;;;;;4.03;3.63;;;;;;;12.93;63.72;97689.03;5062048;28;20785;-69
2022/11/05 09:52:47;;;;;;;4.47;4.07;;;;;;;12.96;63.90;97694.00;5057530;28;20517;-70
2022/11/05 09:55:20;;;;;;;4.07;3.67;;;;;;;12.90;64.55;97691.97;5059723;28;20529;-69
2022/11/05 09:57:52;;;;;;;4.30;3.90;;;;;;;12.91;64.14;97696.25;5053590;28;20208;-69
2022/11/05 10:00:17;;;;;;;4.63;4.03;;;;;;;12.93;64.29;97696.91;5043778;28;20438;-72
2022/11/05 10:02:48;;;;;;;5.73;4.73;;;;;;;12.91;64.30;97704.13;5038438;28;20490;-69
2022/11/05 10:05:13;;;;;;;5.93;4.10;;;;;;;12.90;63.63;97713.00;5040818;28;20187;-68
2022/11/05 10:07:44;;;;;;;5.23;4.50;;;;;;;12.89;64.13;97712.19;5056877;28;20435;-69
2022/11/05 10:10:42;;;;;;;6.90;5.00;;;;;;;12.84;63.87;97714.44;5042980;28;20272;-71
2022/11/05 10:13:35;;;;;;;7.73;5.20;;;;;;;12.85;63.99;97716.09;5047838;28;20443;-72
2022/11/05 10:16:20;;;;;;;5.57;4.97;;;;;;;12.88;63.90;97720.22;5037452;28;20498;-69
2022/11/05 10:18:56;;;;;;;5.63;5.03;;;;;;;12.93;64.77;97719.75;5049782;28;20450;-70
2022/11/05 10:21:22;;;;;;;7.43;5.13;;;;;;;13.00;64.80;97733.97;5058642;28;20432;-70
2022/11/05 10:23:47;;;;;;;9.43;6.00;;;;;;;12.99;64.48;97733.13;5065233;28;20420;-71
2022/11/05 10:26:17;;;;;;;10.47;6.40;;;;;;;13.02;64.43;97730.19;5060810;28;20187;-73
2022/11/05 10:28:42;;;;;;;8.53;6.60;;;;;;;13.03;64.47;97729.22;5046849;28;20207;-71
2022/11/05 10:31:11;;;;;;;8.53;6.63;;;;;;;13.06;64.74;97728.06;5063016;28;20508;-71
2022/11/05 10:33:48;;;;;;;8.43;7.23;;;;;;;13.09;64.46;97742.75;5052382;28;20665;-72
2022/11/05 10:36:20;;;;;;;10.13;6.50;;;;;;;13.14;64.67;97735.19;5062057;28;20464;-72
2022/11/05 10:38:45;;;;;;;9.77;6.70;;;;;;;13.21;64.35;97742.31;5042346;28;20532;-71
2022/11/05 10:41:45;;;;;;;8.50;7.20;;;;;;;13.21;64.49;97734.41;5049927;28;20521;-72
2022/11/05 10:44:23;;;;;;;8.00;6.97;;;;;;;13.28;64.63;97742.50;5042455;28;20192;-71
2022/11/05 10:47:11;;;;;;;9.63;7.17;;;;;;;13.37;64.64;97735.47;5048678;28;20961;-71
2022/11/05 10:49:58;;;;;;;11.70;7.43;;;;;;;13.41;63.97;97736.03;5049265;28;20460;-72
2022/11/05 10:52:31;;;;;;;9.53;6.90;;;;;;;13.47;63.52;97745.94;5053685;28;20415;-71
2022/11/05 10:55:01;;;;;;;8.13;6.67;;;;;;;13.45;63.68;97740.00;5041280;28;20941;-72
2022/11/05 10:57:32;;;;;;;20.63;6.67;;;;;;;13.43;62.97;97734.88;5055545;28;20460;-71
2022/11/05 11:00:16;;;;;;;11.03;6.30;;;;;;;13.43;63.13;97745.41;5036575;28;20443;-71
2022/11/05 11:02:44;;;;;;;7.80;6.57;;;;;;;13.45;62.93;97746.06;5049322;28;20460;-70
2022/11/05 11:05:10;;;;;;;9.43;7.13;;;;;;;13.48;62.60;97743.13;5035626;28;20430;-71
2022/11/05 11:07:36;;;;;;;7.67;6.27;;;;;;;13.48;62.67;97745.75;5039133;28;20467;-70
2022/11/05 11:10:02;;;;;;;13.33;6.87;;;;;;;13.46;62.54;97745.09;5035523;28;20431;-71
2022/11/05 11:12:36;;;;;;;13.13;7.27;;;;;;;13.44;62.58;97746.25;5041395;28;20214;-71
2022/11/05 11:15:26;;;;;;;9.20;7.00;;;;;;;13.44;62.73;97746.25;5035213;28;20187;-71
2022/11/05 11:17:53;;;;;;;12.60;7.50;;;;;;;13.48;62.89;97747.59;5049109;28;20492;-70
2022/11/05 11:20:32;;;;;;;10.33;8.10;;;;;;;13.50;63.00;97748.22;5056350;28;20456;-72
2022/11/05 11:23:12;;;;;;;10.87;7.03;;;;;;;13.55;62.91;97751.22;5066276;28;20420;-73
2022/11/05 11:25:51;;;;;;;8.23;6.23;;;;;;;13.58;62.59;97752.72;5063775;28;20418;-72
2022/11/05 11:28:22;;;;;;;7.40;6.30;;;;;;;13.60;63.10;97751.59;5066158;28;20476;-72
2022/11/05 11:30:51;;;;;;;9.07;6.10;;;;;;;13.70;63.12;97761.16;5060059;28;20430;-70
2022/11/05 11:33:21;;;;;;;9.80;7.30;;;;;;;13.74;62.66;97751.94;5069632;28;20823;-72
2022/11/05 11:35:46;;;;;;;11.23;7.93;;;;;;;13.78;62.31;97756.75;5066505;28;20451;-71
2022/11/05 11:38:13;;;;;;;14.30;7.43;;;;;;;13.81;61.71;97763.50;5061708;28;20453;-73
2022/11/05 11:40:39;;;;;;;9.70;6.40;;;;;;;13.83;61.38;97761.56;5066087;28;21483;-73
2022/11/05 11:43:13;;;;;;;7.23;6.37;;;;;;;13.82;61.45;97767.81;5061617;28;20497;-71
2022/11/05 11:45:48;;;;;;;8.70;7.03;;;;;;;13.83;61.84;97764.19;5069398;28;20516;-71
2022/11/05 11:48:17;;;;;;;9.87;7.03;;;;;;;13.80;61.96;97757.41;5062582;28;20448;-71
2022/11/05 11:50:44;;;;;;;7.10;6.23;;;;;;;13.79;62.17;97760.22;5069627;28;20417;-72
2022/11/05 11:53:19;;;;;;;9.07;6.67;;;;;;;13.78;62.38;97758.56;5057959;28;20434;-72
2022/11/05 11:55:53;;;;;;;9.70;6.87;;;;;;;13.77;62.42;97764.81;5056435;28;20899;-72
2022/11/05 11:58:24;;;;;;;8.30;6.50;;;;;;;13.82;61.59;97759.91;5064917;28;20449;-72
2022/11/05 12:00:57;;;;;;;7.13;5.93;;;;;;;13.88;61.58;97753.97;5055784;28;20425;-71
2022/11/05 12:03:43;;;;;;;8.07;6.70;;;;;;;13.96;61.63;97761.09;5061968;28;20769;-71
2022/11/05 12:06:14;;;;;;;6.77;6.07;;;;;;;14.01;61.17;97757.97;5063044;28;20417;-70
2022/11/05 12:08:56;;;;;;;6.60;5.90;;;;;;;14.02;60.42;97755.19;5059153;28;20448;-71
2022/11/05 12:11:28;;;;;;;6.43;5.63;;;;;;;14.13;60.69;97757.53;5062323;28;20519;-71
2022/11/05 12:14:03;;;;;;;8.43;7.10;;;;;;;14.29;60.55;97756.72;5057298;28;20943;-71
2022/11/05 12:16:53;;;;;;;9.07;6.30;;;;;;;14.54;60.37;97748.81;5062290;28;20452;-70